createdAt,value
2022-07-31T00:00:29.449Z,11.67
2022-07-31T00:02:58.224Z,12.70
2022-07-31T00:05:26.886Z,12.97
2022-07-31T00:07:55.381Z,13.27
2022-07-31T00:10:23.706Z,13.53
2022-07-31T00:12:53.461Z,12.67
2022-07-31T00:15:22.146Z,12.60
2022-07-31T00:17:50.712Z,11.13
2022-07-31T00:20:19.460Z,11.03
2022-07-31T00:22:50.477Z,11.07
2022-07-31T00:25:20.097Z,11.27
2022-07-31T00:27:48.585Z,10.50
2022-07-31T00:30:18.249Z,11.47
2022-07-31T00:32:46.590Z,11.83
2022-07-31T00:35:17.270Z,12.17
2022-07-31T00:37:45.495Z,11.30
2022-07-31T00:40:15.898Z,10.93
2022-07-31T00:42:44.483Z,11.60
2022-07-31T00:45:13.945Z,10.70
2022-07-31T00:47:44.417Z,10.30
2022-07-31T00:50:13.502Z,9.73
2022-07-31T00:52:43.425Z,10.37
2022-07-31T00:55:11.847Z,9.93
2022-07-31T00:57:40.968Z,10.60
2022-07-31T01:00:10.596Z,11.93
2022-07-31T01:02:46.670Z,12.30
2022-07-31T01:05:18.873Z,12.77
2022-07-31T01:07:48.829Z,12.00
2022-07-31T01:10:36.923Z,11.30
2022-07-31T01:13:11.574Z,11.30
2022-07-31T01:15:41.833Z,10.80
2022-07-31T01:18:12.398Z,10.20
2022-07-31T01:20:46.271Z,11.10
2022-07-31T01:23:57.918Z,11.20
2022-07-31T01:26:50.540Z,10.93
2022-07-31T01:29:28.180Z,12.07
2022-07-31T01:32:02.616Z,12.90
2022-07-31T01:34:37.701Z,12.37
2022-07-31T01:37:13.894Z,12.17
2022-07-31T01:40:10.204Z,12.90
2022-07-31T01:42:42.186Z,12.77
2022-07-31T01:45:16.094Z,11.73
2022-07-31T01:47:48.162Z,12.53
2022-07-31T01:50:43.333Z,11.83
2022-07-31T01:53:07.626Z,12.10
2022-07-31T01:56:02.070Z,12.37
2022-07-31T01:58:28.269Z,13.23
2022-07-31T02:01:05.019Z,13.97
2022-07-31T02:03:42.916Z,13.73
2022-07-31T02:06:16.049Z,12.90
2022-07-31T02:08:47.140Z,12.63
2022-07-31T02:11:17.908Z,12.23
2022-07-31T02:13:47.434Z,11.80
2022-07-31T02:16:18.845Z,12.60
2022-07-31T02:18:49.629Z,11.73
2022-07-31T02:21:26.464Z,12.97
2022-07-31T02:23:55.020Z,13.20
2022-07-31T02:26:23.717Z,15.20
2022-07-31T02:28:53.448Z,16.10
2022-07-31T02:31:24.543Z,12.67
2022-07-31T02:33:54.086Z,11.17
2022-07-31T02:36:23.344Z,10.20
2022-07-31T02:38:53.581Z,11.13
2022-07-31T02:41:23.234Z,10.90
2022-07-31T02:43:52.593Z,11.07
2022-07-31T02:46:24.213Z,10.47
2022-07-31T02:48:53.071Z,10.50
2022-07-31T02:51:24.531Z,10.20
2022-07-31T02:53:53.441Z,10.70
2022-07-31T02:56:25.444Z,11.27
2022-07-31T02:58:54.427Z,10.20
2022-07-31T03:01:28.999Z,9.97
2022-07-31T03:03:58.114Z,9.20
2022-07-31T03:06:29.288Z,10.57
2022-07-31T03:08:57.622Z,9.83
2022-07-31T03:11:26.891Z,9.87
2022-07-31T03:13:58.434Z,10.27
2022-07-31T03:17:16.813Z,9.13
2022-07-31T03:19:47.603Z,9.03
2022-07-31T03:22:16.132Z,8.57
2022-07-31T03:24:48.481Z,10.07
2022-07-31T03:27:20.989Z,10.60
2022-07-31T03:29:49.294Z,10.23
2022-07-31T03:32:17.615Z,10.80
2022-07-31T03:34:47.376Z,9.80
2022-07-31T03:37:15.862Z,9.87
2022-07-31T03:39:44.469Z,9.93
2022-07-31T03:42:18.982Z,10.17
2022-07-31T03:44:48.993Z,9.40
2022-07-31T03:47:17.475Z,9.77
2022-07-31T03:49:47.710Z,10.70
2022-07-31T03:52:16.043Z,10.57
2022-07-31T03:54:44.429Z,9.60
2022-07-31T03:57:19.362Z,10.43
2022-07-31T03:59:50.719Z,10.23
2022-07-31T04:02:19.237Z,11.83
2022-07-31T04:04:55.072Z,13.00
2022-07-31T04:07:23.484Z,10.00
2022-07-31T04:09:55.271Z,10.90
2022-07-31T04:12:23.772Z,10.10
2022-07-31T04:14:52.160Z,11.13
2022-07-31T04:17:20.766Z,10.70
2022-07-31T04:19:49.599Z,9.80
2022-07-31T04:22:19.370Z,9.70
2022-07-31T04:24:48.049Z,9.93
2022-07-31T04:27:33.003Z,9.77
2022-07-31T04:30:07.156Z,9.00
2022-07-31T04:32:35.934Z,11.43
2022-07-31T04:35:07.352Z,9.23
2022-07-31T04:37:37.275Z,9.43
2022-07-31T04:40:06.095Z,10.23
2022-07-31T04:42:36.832Z,8.80
2022-07-31T04:45:05.685Z,8.07
2022-07-31T04:47:35.098Z,8.83
2022-07-31T04:50:03.695Z,9.00
2022-07-31T04:52:32.840Z,8.67
2022-07-31T04:55:08.864Z,8.37
2022-07-31T04:57:37.142Z,9.43
2022-07-31T05:00:06.734Z,8.37
2022-07-31T05:02:35.072Z,9.00
2022-07-31T05:06:18.510Z,7.77
2022-07-31T05:08:46.930Z,8.33
2022-07-31T05:11:25.894Z,8.33
2022-07-31T05:13:56.641Z,8.60
2022-07-31T05:16:25.771Z,9.70
2022-07-31T05:18:54.575Z,8.60
2022-07-31T05:21:46.009Z,8.00
2022-07-31T05:24:32.757Z,8.35
2022-07-31T05:27:13.798Z,8.55
2022-07-31T05:29:46.617Z,9.45
2022-07-31T05:32:15.136Z,8.32
2022-07-31T05:34:43.603Z,12.43
2022-07-31T05:37:12.054Z,9.23
2022-07-31T05:39:41.974Z,8.85
2022-07-31T05:42:30.144Z,9.40
2022-07-31T05:45:11.477Z,8.88
2022-07-31T05:47:41.182Z,9.13
2022-07-31T05:50:39.921Z,8.45
2022-07-31T05:53:08.206Z,9.05
2022-07-31T05:56:11.494Z,9.07
2022-07-31T05:58:48.384Z,9.30
2022-07-31T06:01:17.556Z,8.32
2022-07-31T06:03:51.737Z,8.90
2022-07-31T06:06:22.984Z,9.73
2022-07-31T06:08:51.461Z,9.25
2022-07-31T06:11:21.618Z,9.95
2022-07-31T06:13:51.210Z,9.45
2022-07-31T06:16:23.406Z,10.27
2022-07-31T06:18:52.411Z,8.82
2022-07-31T06:23:48.253Z,9.85
2022-07-31T06:27:34.129Z,10.80
2022-07-31T06:30:05.875Z,10.10
2022-07-31T06:32:34.182Z,9.70
2022-07-31T06:35:03.969Z,10.13
2022-07-31T06:37:36.726Z,11.88
2022-07-31T06:40:06.209Z,10.40
2022-07-31T06:42:37.144Z,10.18
2022-07-31T06:45:07.728Z,9.85
2022-07-31T06:47:53.957Z,10.57
2022-07-31T06:50:45.445Z,9.95
2022-07-31T06:53:26.790Z,8.65
2022-07-31T06:55:55.045Z,8.85
2022-07-31T06:58:23.251Z,8.85
2022-07-31T07:00:53.309Z,9.27
2022-07-31T07:03:21.644Z,9.52
2022-07-31T07:05:50.556Z,8.95
2022-07-31T07:08:18.769Z,8.75
2022-07-31T07:10:50.226Z,9.32
2022-07-31T07:13:46.337Z,9.05
2022-07-31T07:16:18.934Z,8.68
2022-07-31T07:18:47.175Z,9.20
2022-07-31T07:21:15.656Z,11.45
2022-07-31T07:23:44.635Z,8.60
2022-07-31T07:26:20.092Z,8.10
2022-07-31T07:28:48.402Z,7.90
2022-07-31T07:31:18.454Z,7.90
2022-07-31T07:33:48.810Z,6.90
2022-07-31T07:37:38.815Z,7.45
2022-07-31T07:40:36.878Z,6.93
2022-07-31T07:43:05.235Z,6.28
2022-07-31T07:45:33.979Z,7.13
2022-07-31T07:48:06.164Z,7.30
2022-07-31T07:50:42.627Z,6.82
2022-07-31T07:53:49.115Z,6.55
2022-07-31T07:56:45.212Z,6.40
2022-07-31T07:59:36.618Z,6.32
2022-07-31T08:02:33.065Z,6.07
2022-07-31T08:05:02.709Z,6.18
2022-07-31T08:07:42.604Z,5.88
2022-07-31T08:10:31.669Z,5.53
2022-07-31T08:13:09.621Z,5.45
2022-07-31T08:15:56.251Z,5.65
2022-07-31T08:18:29.967Z,5.05
2022-07-31T08:20:59.664Z,4.70
2022-07-31T08:23:53.832Z,6.05
2022-07-31T08:26:22.130Z,4.40
2022-07-31T08:28:52.505Z,4.30
2022-07-31T08:32:19.194Z,4.32
2022-07-31T08:35:08.897Z,4.38
2022-07-31T08:37:52.364Z,4.07
2022-07-31T08:40:30.434Z,7.15
2022-07-31T08:43:00.972Z,5.55
2022-07-31T08:45:30.487Z,5.28
2022-07-31T08:48:11.191Z,4.32
2022-07-31T08:50:52.051Z,6.30
2022-07-31T08:53:44.978Z,4.60
2022-07-31T08:56:19.761Z,4.47
2022-07-31T08:58:48.054Z,4.88
2022-07-31T09:01:16.661Z,4.57
2022-07-31T09:03:48.157Z,6.85
2022-07-31T09:06:19.249Z,4.47
2022-07-31T09:08:49.127Z,5.97
2022-07-31T09:11:18.658Z,8.52
2022-07-31T09:14:10.710Z,4.85
2022-07-31T09:16:48.181Z,4.93
2022-07-31T09:19:51.641Z,6.28
2022-07-31T09:22:22.747Z,4.00
2022-07-31T09:24:53.164Z,7.38
2022-07-31T09:28:16.452Z,7.40
2022-07-31T09:30:57.247Z,8.30
2022-07-31T09:33:51.191Z,5.28
2022-07-31T09:37:08.704Z,5.00
2022-07-31T09:40:10.779Z,5.00
2022-07-31T09:42:52.921Z,5.40
2022-07-31T09:45:26.290Z,5.38
2022-07-31T09:48:08.204Z,6.28
2022-07-31T09:50:36.845Z,7.50
2022-07-31T09:53:06.835Z,6.07
2022-07-31T09:55:37.708Z,5.53
2022-07-31T09:58:05.890Z,5.70
2022-07-31T10:00:40.072Z,5.70
2022-07-31T10:03:09.140Z,4.60
2022-07-31T10:05:38.722Z,4.43
2022-07-31T10:08:09.764Z,3.97
2022-07-31T10:10:55.092Z,4.88
2022-07-31T10:13:48.713Z,4.45
2022-07-31T10:16:17.740Z,6.13
2022-07-31T10:18:50.792Z,6.28
2022-07-31T10:21:42.671Z,6.10
2022-07-31T10:24:26.052Z,3.78
2022-07-31T10:27:08.006Z,3.40
2022-07-31T10:29:40.178Z,3.25
2022-07-31T10:32:34.224Z,4.45
2022-07-31T10:35:29.010Z,4.35
2022-07-31T10:38:09.742Z,3.42
2022-07-31T10:40:53.482Z,4.88
2022-07-31T10:43:28.988Z,4.95
2022-07-31T10:46:28.756Z,3.25
2022-07-31T10:49:40.427Z,2.90
2022-07-31T10:52:31.993Z,3.75
2022-07-31T10:55:22.169Z,3.00
2022-07-31T10:58:11.713Z,3.33
2022-07-31T11:01:08.128Z,3.08
2022-07-31T11:04:01.808Z,5.28
2022-07-31T11:06:46.683Z,4.95
2022-07-31T11:09:33.654Z,4.47
2022-07-31T11:12:37.437Z,7.60
2022-07-31T11:15:26.817Z,2.55
2022-07-31T11:18:24.989Z,2.75
2022-07-31T11:21:22.809Z,3.13
2022-07-31T11:23:57.651Z,4.88
2022-07-31T11:26:32.910Z,5.40
2022-07-31T11:29:59.901Z,4.57
2022-07-31T11:31:52.668Z,3.60
2022-07-31T11:34:22.268Z,2.67
2022-07-31T11:36:51.691Z,3.53
2022-07-31T11:39:25.097Z,2.83
2022-07-31T11:42:07.398Z,3.17
2022-07-31T11:44:36.905Z,3.58
2022-07-31T11:48:09.734Z,3.53
2022-07-31T11:50:03.258Z,2.63
2022-07-31T11:52:36.918Z,4.00
2022-07-31T11:55:09.424Z,3.63
2022-07-31T11:57:51.906Z,3.00
2022-07-31T12:00:26.106Z,2.40
2022-07-31T12:02:58.976Z,3.03
2022-07-31T12:05:37.901Z,2.70
2022-07-31T12:08:08.213Z,2.20
2022-07-31T12:10:36.740Z,2.17
2022-07-31T12:13:04.926Z,2.42
2022-07-31T12:15:33.134Z,3.65
2022-07-31T12:18:02.875Z,3.60
2022-07-31T12:20:36.980Z,1.85
2022-07-31T12:23:07.125Z,2.53
2022-07-31T12:25:55.306Z,5.35
2022-07-31T12:28:23.580Z,1.77
2022-07-31T12:31:00.301Z,1.83
2022-07-31T12:33:28.629Z,1.98
2022-07-31T12:35:58.311Z,3.22
2022-07-31T12:38:45.115Z,3.08
2022-07-31T12:41:14.808Z,1.92
2022-07-31T12:43:50.108Z,3.90
2022-07-31T12:46:22.697Z,3.13
2022-07-31T12:48:51.231Z,2.55
2022-07-31T12:51:45.886Z,2.55
2022-07-31T12:54:09.437Z,2.83
2022-07-31T12:56:38.302Z,1.70
2022-07-31T12:59:07.289Z,3.88
2022-07-31T13:01:35.718Z,2.75
2022-07-31T13:04:07.848Z,4.25
2022-07-31T13:06:38.711Z,3.00
2022-07-31T13:09:06.958Z,2.72
2022-07-31T13:11:46.022Z,2.05
2022-07-31T13:14:16.445Z,2.13
2022-07-31T13:16:44.708Z,3.35
2022-07-31T13:19:12.984Z,3.58
2022-07-31T13:21:49.290Z,1.88
2022-07-31T13:24:19.483Z,2.45
2022-07-31T13:26:47.764Z,2.72
2022-07-31T13:29:16.884Z,2.58
2022-07-31T13:32:36.150Z,3.05
2022-07-31T13:35:25.457Z,1.90
2022-07-31T13:37:54.767Z,3.25
2022-07-31T13:40:43.805Z,2.55
2022-07-31T13:43:12.284Z,2.10
2022-07-31T13:45:40.682Z,2.83
2022-07-31T13:48:10.054Z,4.22
2022-07-31T13:50:39.520Z,2.90
2022-07-31T13:53:09.336Z,2.63
2022-07-31T13:56:02.774Z,3.85
2022-07-31T13:58:31.421Z,3.40
2022-07-31T14:01:04.385Z,3.63
2022-07-31T14:03:34.333Z,3.78
2022-07-31T14:06:04.689Z,3.28
2022-07-31T14:08:50.138Z,3.28
2022-07-31T14:11:18.953Z,3.28
2022-07-31T14:13:47.096Z,3.25
2022-07-31T14:16:15.276Z,2.55
2022-07-31T14:18:43.517Z,3.05
2022-07-31T14:21:11.847Z,3.53
2022-07-31T14:24:11.698Z,3.10
2022-07-31T14:26:39.870Z,3.50
2022-07-31T14:29:08.193Z,3.15
2022-07-31T14:31:36.432Z,3.47
2022-07-31T14:34:04.680Z,2.13
2022-07-31T14:36:32.967Z,2.70
2022-07-31T14:39:01.190Z,3.38
2022-07-31T14:41:30.881Z,2.72
2022-07-31T14:43:59.064Z,3.00
2022-07-31T14:46:27.267Z,2.92
2022-07-31T14:48:55.583Z,4.85
2022-07-31T14:51:23.906Z,4.75
2022-07-31T14:53:52.699Z,3.03
2022-07-31T14:56:39.618Z,3.85
2022-07-31T14:59:10.845Z,2.60
2022-07-31T15:01:40.566Z,2.85
2022-07-31T15:04:09.002Z,4.20
2022-07-31T15:06:55.956Z,2.63
2022-07-31T15:09:27.738Z,3.60
2022-07-31T15:11:59.987Z,4.03
2022-07-31T15:14:31.423Z,5.15
2022-07-31T15:17:27.393Z,3.17
2022-07-31T15:19:55.596Z,2.42
2022-07-31T15:22:23.874Z,3.55
2022-07-31T15:24:52.231Z,6.22
2022-07-31T15:27:22.208Z,3.65
2022-07-31T15:30:04.297Z,5.07
2022-07-31T15:32:35.274Z,3.92
2022-07-31T15:35:03.567Z,2.53
2022-07-31T15:37:35.182Z,4.30
2022-07-31T15:40:08.607Z,3.55
2022-07-31T15:42:40.501Z,4.03
2022-07-31T15:45:13.454Z,6.75
2022-07-31T15:47:47.420Z,3.97
2022-07-31T15:50:17.195Z,3.38
2022-07-31T15:52:45.744Z,3.30
2022-07-31T15:55:15.073Z,2.88
2022-07-31T15:57:43.586Z,3.47
2022-07-31T16:00:16.113Z,4.05
2022-07-31T16:02:45.503Z,2.92
2022-07-31T16:05:21.605Z,3.00
2022-07-31T16:08:30.115Z,4.38
2022-07-31T16:10:38.901Z,2.63
2022-07-31T16:13:10.536Z,3.25
2022-07-31T16:15:40.360Z,3.28
2022-07-31T16:18:08.505Z,2.53
2022-07-31T16:20:46.380Z,3.55
2022-07-31T16:23:14.605Z,2.15
2022-07-31T16:25:43.815Z,3.67
2022-07-31T16:28:12.267Z,3.92
2022-07-31T16:30:42.371Z,2.50
2022-07-31T16:33:10.565Z,2.95
2022-07-31T16:35:39.088Z,3.85
2022-07-31T16:38:08.007Z,2.97
2022-07-31T16:40:36.324Z,3.78
2022-07-31T16:43:47.584Z,2.85
2022-07-31T16:45:57.174Z,2.90
2022-07-31T16:48:25.741Z,3.05
2022-07-31T16:51:19.441Z,3.85
2022-07-31T16:54:13.818Z,4.18
2022-07-31T16:56:37.469Z,4.80
2022-07-31T16:59:06.989Z,2.78
2022-07-31T17:02:02.096Z,4.60
2022-07-31T17:04:55.564Z,3.85
2022-07-31T17:07:23.783Z,12.38
2022-07-31T17:09:51.969Z,6.30
2022-07-31T17:12:20.397Z,4.32
2022-07-31T17:14:49.098Z,2.95
2022-07-31T17:17:20.627Z,4.68
2022-07-31T17:19:48.989Z,2.97
2022-07-31T17:22:23.701Z,3.92
2022-07-31T17:24:52.500Z,3.28
2022-07-31T17:27:21.709Z,6.97
2022-07-31T17:29:50.188Z,5.95
2022-07-31T17:32:19.775Z,5.25
2022-07-31T17:34:49.478Z,2.55
2022-07-31T17:37:18.193Z,5.57
2022-07-31T17:39:46.760Z,3.63
2022-07-31T17:42:15.087Z,3.60
2022-07-31T17:44:48.260Z,2.85
2022-07-31T17:48:10.340Z,5.22
2022-07-31T17:50:40.057Z,2.90
2022-07-31T17:53:08.569Z,5.97
2022-07-31T17:55:38.214Z,3.97
2022-07-31T17:58:07.219Z,3.38
2022-07-31T18:00:36.360Z,6.03
2022-07-31T18:03:04.836Z,3.38
2022-07-31T18:05:33.275Z,5.50
2022-07-31T18:08:03.073Z,2.70
2022-07-31T18:10:53.098Z,3.08
2022-07-31T18:13:19.875Z,4.68
2022-07-31T18:15:48.445Z,6.80
2022-07-31T18:18:17.119Z,3.03
2022-07-31T18:20:46.163Z,3.38
2022-07-31T18:23:15.923Z,5.72
2022-07-31T18:25:51.895Z,2.30
2022-07-31T18:28:20.103Z,2.17
2022-07-31T18:30:48.666Z,3.50
2022-07-31T18:33:17.453Z,4.80
2022-07-31T18:35:45.919Z,4.97
2022-07-31T18:38:15.730Z,4.47
2022-07-31T18:40:43.925Z,4.13
2022-07-31T18:43:12.156Z,4.15
2022-07-31T18:45:41.646Z,4.85
2022-07-31T18:48:10.038Z,3.33
2022-07-31T18:51:00.668Z,5.40
2022-07-31T18:53:28.052Z,4.32
2022-07-31T18:55:56.297Z,2.83
2022-07-31T18:58:26.553Z,5.00
2022-07-31T19:00:55.493Z,5.60
2022-07-31T19:03:25.698Z,6.07
2022-07-31T19:05:54.470Z,3.72
2022-07-31T19:08:22.804Z,3.75
2022-07-31T19:10:53.591Z,5.60
2022-07-31T19:13:22.554Z,5.07
2022-07-31T19:15:53.052Z,4.70
2022-07-31T19:18:24.409Z,5.18
2022-07-31T19:21:23.412Z,6.28
2022-07-31T19:23:45.521Z,3.72
2022-07-31T19:26:15.307Z,4.25
2022-07-31T19:28:44.106Z,3.65
2022-07-31T19:31:13.576Z,5.28
2022-07-31T19:33:41.841Z,4.57
2022-07-31T19:36:10.927Z,5.20
2022-07-31T19:38:40.477Z,4.28
2022-07-31T19:41:08.721Z,3.03
2022-07-31T19:43:38.315Z,4.10
2022-07-31T19:46:12.018Z,5.18
2022-07-31T19:48:41.917Z,4.63
2022-07-31T19:51:12.189Z,5.00
2022-07-31T19:53:40.541Z,4.10
2022-07-31T19:56:09.205Z,5.75
2022-07-31T19:58:41.643Z,6.00
2022-07-31T20:01:11.542Z,7.10
2022-07-31T20:03:39.894Z,4.53
2022-07-31T20:06:08.456Z,3.85
2022-07-31T20:08:36.921Z,6.90
2022-07-31T20:11:05.915Z,4.25
2022-07-31T20:13:35.315Z,3.67
2022-07-31T20:16:05.533Z,3.35
2022-07-31T20:18:33.866Z,4.00
2022-07-31T20:21:04.367Z,3.95
2022-07-31T20:23:34.348Z,5.22
2022-07-31T20:26:02.801Z,4.15
2022-07-31T20:28:31.021Z,3.80
2022-07-31T20:30:59.247Z,5.30
2022-07-31T20:33:29.100Z,3.67
2022-07-31T20:35:57.329Z,4.07
2022-07-31T20:38:25.827Z,6.68
2022-07-31T20:40:56.111Z,3.90
2022-07-31T20:43:26.094Z,3.70
2022-07-31T20:45:57.247Z,4.43
2022-07-31T20:48:31.258Z,5.45
2022-07-31T20:51:02.473Z,7.47
2022-07-31T20:53:31.893Z,3.97
2022-07-31T20:56:00.351Z,3.92
2022-07-31T20:58:29.348Z,4.68
2022-07-31T21:00:57.603Z,4.68
2022-07-31T21:03:25.868Z,4.05
2022-07-31T21:05:54.018Z,5.50
2022-07-31T21:08:23.610Z,5.53
2022-07-31T21:10:51.878Z,3.97
2022-07-31T21:13:20.201Z,5.68
2022-07-31T21:15:48.476Z,5.43
2022-07-31T21:18:18.434Z,5.38
2022-07-31T21:20:52.211Z,3.55
2022-07-31T21:23:24.621Z,4.63
2022-07-31T21:25:53.554Z,4.82
2022-07-31T21:28:22.186Z,3.65
2022-07-31T21:30:50.917Z,3.80
2022-07-31T21:33:19.315Z,3.95
2022-07-31T21:35:47.935Z,5.38
2022-07-31T21:38:17.173Z,4.30
2022-07-31T21:40:48.285Z,5.82
2022-07-31T21:43:22.147Z,4.22
2022-07-31T21:45:57.181Z,4.47
2022-07-31T21:48:30.964Z,4.18
2022-07-31T21:50:59.939Z,5.25
2022-07-31T21:53:28.262Z,3.92
2022-07-31T21:56:01.243Z,5.53
2022-07-31T21:58:29.448Z,3.90
2022-07-31T22:00:57.785Z,5.88
2022-07-31T22:03:26.443Z,6.53
2022-07-31T22:06:12.150Z,5.45
2022-07-31T22:08:40.346Z,5.65
2022-07-31T22:11:10.489Z,5.95
2022-07-31T22:13:38.746Z,4.85
2022-07-31T22:16:07.242Z,4.22
2022-07-31T22:18:36.009Z,5.50
2022-07-31T22:21:07.035Z,6.80
2022-07-31T22:23:36.149Z,4.20
2022-07-31T22:26:05.076Z,5.65
2022-07-31T22:28:35.498Z,4.40
2022-07-31T22:31:03.939Z,5.40
2022-07-31T22:33:32.324Z,5.68
2022-07-31T22:36:02.654Z,5.28
2022-07-31T22:38:31.883Z,6.43
2022-07-31T22:41:00.395Z,6.40
2022-07-31T22:44:11.015Z,4.32
2022-07-31T22:46:18.664Z,5.50
2022-07-31T22:48:47.354Z,5.80
2022-07-31T22:51:16.007Z,5.10
2022-07-31T22:53:48.679Z,4.43
2022-07-31T22:56:17.895Z,5.20
2022-07-31T22:58:46.104Z,4.75
2022-07-31T23:01:14.556Z,6.05
2022-07-31T23:03:44.093Z,5.10
2022-07-31T23:06:29.828Z,3.90
2022-07-31T23:09:00.643Z,4.65
2022-07-31T23:11:28.952Z,6.80
2022-07-31T23:13:57.258Z,7.15
2022-07-31T23:16:25.607Z,6.03
2022-07-31T23:18:55.337Z,5.72
2022-07-31T23:21:24.003Z,5.78
2022-07-31T23:23:52.559Z,5.88
2022-07-31T23:26:21.393Z,4.55
2022-07-31T23:28:49.900Z,4.47
2022-07-31T23:31:18.364Z,5.00
2022-07-31T23:33:47.807Z,7.80
2022-07-31T23:36:17.701Z,5.18
2022-07-31T23:38:46.709Z,4.90
2022-07-31T23:41:14.916Z,4.68
2022-07-31T23:43:55.300Z,6.20
2022-07-31T23:46:26.643Z,4.80
2022-07-31T23:48:56.060Z,4.95
2022-07-31T23:51:25.784Z,5.53
2022-07-31T23:53:54.079Z,5.00
2022-07-31T23:56:22.304Z,4.95
2022-07-31T23:58:50.521Z,5.13
